Time;durP1;ratioP1;P1;durP2;ratioP2;P2;SDS_P1;SDS_P2;PMS_P1;PMS_P2;Temp;Humidity;BMP_temperature;BMP_pressure;BME280_temperature;BME280_humidity;BME280_pressure;Samples;Min_cycle;Max_cycle;Signal;HPM_P1;HPM_P2
2023/06/10 00:00:44;;;;;;;21.40;13.30;;;;;;;-128.00;-1.00;-1.00;103622;1259;1004833;-81
2023/06/10 00:03:30;;;;;;;19.90;13.70;;;;;;;-128.00;-1.00;-1.00;102500;1260;1049147;-82
2023/06/10 00:05:57;;;;;;;25.20;14.40;;;;;;;-128.00;-1.00;-1.00;102566;1259;1005513;-80
2023/06/10 00:08:24;;;;;;;21.20;14.10;;;;;;;-128.00;-1.00;-1.00;102537;1259;1004557;-81
2023/06/10 00:10:50;;;;;;;23.20;14.40;;;;;;;-128.00;-1.00;-1.00;102493;1259;1004266;-81
2023/06/10 00:13:17;;;;;;;21.20;13.70;;;;;;;-128.00;-1.00;-1.00;102553;1259;1004793;-79
2023/06/10 00:15:43;;;;;;;21.20;15.30;;;;;;;-128.00;-1.00;-1.00;102575;1260;1005090;-81
2023/06/10 00:18:10;;;;;;;24.00;14.50;;;;;;;-128.00;-1.00;-1.00;102591;1259;1004280;-79
2023/06/10 00:20:37;;;;;;;19.10;15.00;;;;;;;-128.00;-1.00;-1.00;102781;1259;1004051;-80
2023/06/10 00:23:06;;;;;;;18.50;12.90;;;;;;;-128.00;-1.00;-1.00;103438;1259;1004056;-79
2023/06/10 00:25:32;;;;;;;18.60;13.20;;;;;;;-128.00;-1.00;-1.00;102566;1260;1046789;-81
2023/06/10 00:27:59;;;;;;;20.60;14.60;;;;;;;-128.00;-1.00;-1.00;102559;1259;1005761;-82
2023/06/10 00:30:26;;;;;;;22.50;13.80;;;;;;;-128.00;-1.00;-1.00;102550;1259;1004049;-82
2023/06/10 00:32:52;;;;;;;19.60;12.40;;;;;;;-128.00;-1.00;-1.00;102706;1259;1005669;-81
2023/06/10 00:35:18;;;;;;;15.30;11.30;;;;;;;-128.00;-1.00;-1.00;102662;1260;1007770;-81
2023/06/10 00:37:45;;;;;;;15.50;11.80;;;;;;;-128.00;-1.00;-1.00;102713;1260;1004667;-79
2023/06/10 00:40:12;;;;;;;16.30;11.50;;;;;;;-128.00;-1.00;-1.00;102603;1260;1005232;-81
2023/06/10 00:42:38;;;;;;;18.70;12.00;;;;;;;-128.00;-1.00;-1.00;102671;1260;1003899;-81
2023/06/10 00:45:05;;;;;;;16.20;11.90;;;;;;;-128.00;-1.00;-1.00;102645;1260;1004796;-79
2023/06/10 00:47:32;;;;;;;17.20;11.00;;;;;;;-128.00;-1.00;-1.00;102511;1264;1004814;-80
2023/06/10 00:49:58;;;;;;;13.90;9.90;;;;;;;-128.00;-1.00;-1.00;102577;1260;1003595;-81
2023/06/10 00:52:27;;;;;;;15.60;10.50;;;;;;;-128.00;-1.00;-1.00;102603;1259;1004307;-79
2023/06/10 00:54:53;;;;;;;;;;;;;;;-128.00;-1.00;-1.00;102595;1262;1062101;-81
2023/06/10 00:57:20;;;;;;;14.80;11.30;;;;;;;-128.00;-1.00;-1.00;102595;1259;1004454;-79
2023/06/10 00:59:48;;;;;;;14.50;10.10;;;;;;;-128.00;-1.00;-1.00;102449;1259;1004288;-79
2023/06/10 01:02:14;;;;;;;16.50;11.40;;;;;;;-128.00;-1.00;-1.00;102560;1264;1004842;-79
2023/06/10 01:04:41;;;;;;;16.80;11.70;;;;;;;-128.00;-1.00;-1.00;102515;1259;1005429;-79
2023/06/10 01:07:14;;;;;;;18.50;11.00;;;;;;;-128.00;-1.00;-1.00;102559;1263;1005131;-79
2023/06/10 01:09:57;;;;;;;14.10;12.00;;;;;;;-128.00;-1.00;-1.00;102464;1259;1058349;-79
2023/06/10 01:12:29;;;;;;;16.40;11.50;;;;;;;-128.00;-1.00;-1.00;102646;1259;1061133;-80
2023/06/10 01:14:55;;;;;;;16.10;11.70;;;;;;;-128.00;-1.00;-1.00;105183;1259;1046701;-81
2023/06/10 01:17:22;;;;;;;12.60;11.00;;;;;;;-128.00;-1.00;-1.00;105189;1259;1003819;-81
2023/06/10 01:19:55;;;;;;;16.10;10.70;;;;;;;-128.00;-1.00;-1.00;105180;1259;1005179;-79
2023/06/10 01:22:36;;;;;;;11.70;9.60;;;;;;;-128.00;-1.00;-1.00;105203;1259;1058188;-80
2023/06/10 01:25:03;;;;;;;13.10;10.50;;;;;;;-128.00;-1.00;-1.00;105215;1259;1059381;-80
2023/06/10 01:27:31;;;;;;;15.60;11.70;;;;;;;-128.00;-1.00;-1.00;105154;1259;1003417;-80
2023/06/10 01:30:01;;;;;;;15.20;10.70;;;;;;;-128.00;-1.00;-1.00;105169;1259;1003764;-80
2023/06/10 01:32:40;;;;;;;18.60;9.90;;;;;;;-128.00;-1.00;-1.00;105156;1259;1062138;-82
2023/06/10 01:35:07;;;;;;;12.50;10.40;;;;;;;-128.00;-1.00;-1.00;105186;1259;1057330;-80
2023/06/10 01:37:33;;;;;;;13.20;10.40;;;;;;;-128.00;-1.00;-1.00;105087;1259;1004317;-81
2023/06/10 01:40:00;;;;;;;16.50;11.10;;;;;;;-128.00;-1.00;-1.00;105145;1259;1003432;-80
2023/06/10 01:42:26;;;;;;;12.70;10.40;;;;;;;-128.00;-1.00;-1.00;105176;1260;1005184;-81
2023/06/10 01:44:52;;;;;;;14.60;10.90;;;;;;;-128.00;-1.00;-1.00;105204;1259;1004381;-81
2023/06/10 01:47:19;;;;;;;15.10;9.90;;;;;;;-128.00;-1.00;-1.00;105213;1259;1004328;-80
2023/06/10 01:49:45;;;;;;;14.40;10.60;;;;;;;-128.00;-1.00;-1.00;105183;1259;1003835;-79
2023/06/10 01:52:12;;;;;;;18.90;12.10;;;;;;;-128.00;-1.00;-1.00;105197;1259;1004277;-80
2023/06/10 01:54:38;;;;;;;17.90;10.60;;;;;;;-128.00;-1.00;-1.00;105206;1259;1004790;-80
2023/06/10 01:57:06;;;;;;;20.60;11.90;;;;;;;-128.00;-1.00;-1.00;105191;1259;1004256;-81
2023/06/10 01:59:32;;;;;;;18.60;13.30;;;;;;;-128.00;-1.00;-1.00;105199;1259;1004992;-79
2023/06/10 02:01:58;;;;;;;22.90;14.40;;;;;;;-128.00;-1.00;-1.00;105189;1259;1003813;-79
2023/06/10 02:04:25;;;;;;;18.80;13.40;;;;;;;-128.00;-1.00;-1.00;105168;1259;1003956;-81
2023/06/10 02:06:53;;;;;;;21.40;14.30;;;;;;;-128.00;-1.00;-1.00;105234;1259;1003749;-79
2023/06/10 02:09:19;;;;;;;18.00;12.70;;;;;;;-128.00;-1.00;-1.00;105234;1259;1004058;-81
2023/06/10 02:11:46;;;;;;;18.50;12.80;;;;;;;-128.00;-1.00;-1.00;105210;1259;1004187;-79
2023/06/10 02:14:12;;;;;;;16.30;12.60;;;;;;;-128.00;-1.00;-1.00;105184;1259;1004557;-79
2023/06/10 02:16:39;;;;;;;18.20;13.30;;;;;;;-128.00;-1.00;-1.00;103789;1265;1003979;-79
2023/06/10 02:19:06;;;;;;;20.00;14.50;;;;;;;-128.00;-1.00;-1.00;102608;1264;1004830;-81
2023/06/10 02:21:34;;;;;;;23.10;14.50;;;;;;;-128.00;-1.00;-1.00;102547;1259;1004572;-81
2023/06/10 02:24:00;;;;;;;18.00;12.80;;;;;;;-128.00;-1.00;-1.00;102552;1263;1004485;-78
2023/06/10 02:26:27;;;;;;;19.30;13.40;;;;;;;-128.00;-1.00;-1.00;102511;1264;1004952;-79
2023/06/10 02:28:54;;;;;;;20.80;12.80;;;;;;;-128.00;-1.00;-1.00;102531;1260;1005512;-79
2023/06/10 02:31:21;;;;;;;15.50;12.40;;;;;;;-128.00;-1.00;-1.00;102591;1260;1005931;-80
2023/06/10 02:33:47;;;;;;;23.10;12.80;;;;;;;-128.00;-1.00;-1.00;102583;1259;1006289;-81
2023/06/10 02:36:15;;;;;;;16.30;11.60;;;;;;;-128.00;-1.00;-1.00;102577;1259;1005400;-79
2023/06/10 02:38:42;;;;;;;17.10;11.90;;;;;;;-128.00;-1.00;-1.00;102584;1259;1004861;-79
2023/06/10 02:41:08;;;;;;;21.60;12.10;;;;;;;-128.00;-1.00;-1.00;102530;1259;1005172;-80
2023/06/10 02:43:34;;;;;;;18.10;12.50;;;;;;;-128.00;-1.00;-1.00;102642;1259;1005835;-80
2023/06/10 02:46:01;;;;;;;15.80;11.70;;;;;;;-128.00;-1.00;-1.00;103886;1259;1004552;-81
2023/06/10 02:48:27;;;;;;;17.00;12.60;;;;;;;-128.00;-1.00;-1.00;105187;1259;1004373;-81
2023/06/10 02:50:55;;;;;;;21.30;14.60;;;;;;;-128.00;-1.00;-1.00;105212;1259;1004674;-79
2023/06/10 02:53:22;;;;;;;25.10;14.20;;;;;;;-128.00;-1.00;-1.00;105182;1259;1003563;-82
2023/06/10 02:55:48;;;;;;;24.20;15.50;;;;;;;-128.00;-1.00;-1.00;105185;1259;1004106;-79
2023/06/10 02:58:15;;;;;;;22.00;14.60;;;;;;;-128.00;-1.00;-1.00;105162;1259;1004907;-81
2023/06/10 03:00:42;;;;;;;23.70;16.00;;;;;;;-128.00;-1.00;-1.00;103603;1261;1005113;-80
2023/06/10 03:03:10;;;;;;;27.00;16.30;;;;;;;-128.00;-1.00;-1.00;102535;1265;1004036;-78
2023/06/10 03:05:36;;;;;;;26.40;18.10;;;;;;;-128.00;-1.00;-1.00;102533;1263;1003904;-79
2023/06/10 03:08:03;;;;;;;29.10;17.10;;;;;;;-128.00;-1.00;-1.00;102579;1259;1004677;-80
2023/06/10 03:10:31;;;;;;;27.30;17.70;;;;;;;-128.00;-1.00;-1.00;102452;1259;1004381;-80
2023/06/10 03:12:58;;;;;;;32.90;17.70;;;;;;;-128.00;-1.00;-1.00;102559;1259;1004675;-81
2023/06/10 03:15:25;;;;;;;26.20;16.50;;;;;;;-128.00;-1.00;-1.00;101967;1263;1005233;-80
2023/06/10 03:17:51;;;;;;;25.50;16.80;;;;;;;-128.00;-1.00;-1.00;101936;1265;1006229;-80
2023/06/10 03:20:18;;;;;;;24.30;15.80;;;;;;;-128.00;-1.00;-1.00;102090;1259;1005857;-79
2023/06/10 03:22:45;;;;;;;22.20;16.40;;;;;;;-128.00;-1.00;-1.00;102103;1259;1005090;-80
2023/06/10 03:25:13;;;;;;;24.50;15.10;;;;;;;-128.00;-1.00;-1.00;102089;1260;1006662;-79
2023/06/10 03:27:42;;;;;;;27.00;15.70;;;;;;;-128.00;-1.00;-1.00;102078;1259;1062068;-79
2023/06/10 03:30:08;;;;;;;25.90;15.70;;;;;;;-128.00;-1.00;-1.00;102550;1259;1004452;-78
2023/06/10 03:32:36;;;;;;;23.50;15.50;;;;;;;-128.00;-1.00;-1.00;102604;1263;1005372;-80
2023/06/10 03:35:03;;;;;;;23.00;16.50;;;;;;;-128.00;-1.00;-1.00;102522;1260;1005295;-78
2023/06/10 03:37:29;;;;;;;24.60;17.10;;;;;;;-128.00;-1.00;-1.00;102549;1260;1004509;-79
2023/06/10 03:39:56;;;;;;;23.70;16.60;;;;;;;-128.00;-1.00;-1.00;102596;1260;1003744;-80
2023/06/10 03:42:22;;;;;;;23.70;15.10;;;;;;;-128.00;-1.00;-1.00;102559;1259;1004554;-78
2023/06/10 03:44:48;;;;;;;26.30;15.70;;;;;;;-128.00;-1.00;-1.00;102531;1259;1005517;-80
2023/06/10 03:47:15;;;;;;;23.20;15.10;;;;;;;-128.00;-1.00;-1.00;103949;1259;1005122;-79
2023/06/10 03:49:42;;;;;;;22.80;14.90;;;;;;;-128.00;-1.00;-1.00;102499;1265;1003892;-80
2023/06/10 03:52:08;;;;;;;20.70;13.40;;;;;;;-128.00;-1.00;-1.00;102441;1260;1005274;-80
2023/06/10 03:54:35;;;;;;;25.80;16.30;;;;;;;-128.00;-1.00;-1.00;102000;1259;1004797;-79
2023/06/10 03:57:02;;;;;;;27.30;17.70;;;;;;;-128.00;-1.00;-1.00;101950;1260;1005611;-78
2023/06/10 03:59:29;;;;;;;24.80;17.20;;;;;;;-128.00;-1.00;-1.00;102464;1264;1004247;-79
2023/06/10 04:01:56;;;;;;;29.40;18.50;;;;;;;-128.00;-1.00;-1.00;102026;1259;1003548;-78
2023/06/10 04:04:23;;;;;;;26.30;17.10;;;;;;;-128.00;-1.00;-1.00;102053;1265;1004086;-80
2023/06/10 04:06:49;;;;;;;30.10;16.90;;;;;;;-128.00;-1.00;-1.00;102589;1260;1004252;-80
2023/06/10 04:09:16;;;;;;;29.80;18.00;;;;;;;-128.00;-1.00;-1.00;102474;1265;1004685;-79
2023/06/10 04:11:42;;;;;;;33.80;18.40;;;;;;;-128.00;-1.00;-1.00;102505;1260;1005558;-81
2023/06/10 04:14:09;;;;;;;33.80;19.20;;;;;;;-128.00;-1.00;-1.00;102566;1260;1005107;-80
2023/06/10 04:16:35;;;;;;;27.90;19.40;;;;;;;-128.00;-1.00;-1.00;102508;1259;1004209;-79
2023/06/10 04:19:02;;;;;;;28.10;19.90;;;;;;;-128.00;-1.00;-1.00;102489;1264;1004227;-81
2023/06/10 04:21:29;;;;;;;28.10;20.30;;;;;;;-128.00;-1.00;-1.00;102486;1259;1005486;-79
2023/06/10 04:23:55;;;;;;;26.50;20.50;;;;;;;-128.00;-1.00;-1.00;102541;1259;1006336;-81
2023/06/10 04:26:21;;;;;;;26.80;18.00;;;;;;;-128.00;-1.00;-1.00;102620;1259;1004347;-80
2023/06/10 04:28:48;;;;;;;23.90;15.40;;;;;;;-128.00;-1.00;-1.00;102446;1263;1004255;-79
2023/06/10 04:31:15;;;;;;;24.70;15.30;;;;;;;-128.00;-1.00;-1.00;102594;1263;1004992;-79
2023/06/10 04:33:41;;;;;;;28.50;16.60;;;;;;;-128.00;-1.00;-1.00;102642;1258;1004690;-81
2023/06/10 04:36:07;;;;;;;25.90;17.90;;;;;;;-128.00;-1.00;-1.00;102625;1260;1004081;-79
2023/06/10 04:38:34;;;;;;;27.00;18.10;;;;;;;-128.00;-1.00;-1.00;103118;1259;1005497;-80
2023/06/10 04:41:00;;;;;;;23.70;17.20;;;;;;;-128.00;-1.00;-1.00;102514;1258;1004054;-79
2023/06/10 04:43:28;;;;;;;29.00;16.60;;;;;;;-128.00;-1.00;-1.00;102616;1260;1004245;-81
2023/06/10 04:45:55;;;;;;;34.30;18.50;;;;;;;-128.00;-1.00;-1.00;102619;1262;1003959;-81
2023/06/10 04:48:23;;;;;;;27.20;17.90;;;;;;;-128.00;-1.00;-1.00;102613;1259;1004400;-80
2023/06/10 04:50:50;;;;;;;32.60;18.50;;;;;;;-128.00;-1.00;-1.00;102548;1259;1058695;-79
2023/06/10 04:53:16;;;;;;;24.10;15.20;;;;;;;-128.00;-1.00;-1.00;102601;1261;1004136;-82
2023/06/10 04:55:43;;;;;;;21.00;15.20;;;;;;;-128.00;-1.00;-1.00;102484;1259;1005870;-81
2023/06/10 04:58:10;;;;;;;23.80;16.20;;;;;;;-128.00;-1.00;-1.00;102639;1260;1004690;-79
2023/06/10 05:00:36;;;;;;;24.60;16.10;;;;;;;-128.00;-1.00;-1.00;102588;1264;1004962;-80
2023/06/10 05:03:03;;;;;;;25.80;18.10;;;;;;;-128.00;-1.00;-1.00;102494;1263;1005198;-78
2023/06/10 05:05:29;;;;;;;29.10;17.70;;;;;;;-128.00;-1.00;-1.00;102535;1259;1004583;-80
2023/06/10 05:07:55;;;;;;;26.30;17.80;;;;;;;-128.00;-1.00;-1.00;102531;1258;1004449;-79
2023/06/10 05:10:22;;;;;;;26.30;18.10;;;;;;;-128.00;-1.00;-1.00;102598;1262;1004097;-81
2023/06/10 05:12:48;;;;;;;33.70;19.50;;;;;;;-128.00;-1.00;-1.00;102619;1260;1005465;-79
2023/06/10 05:15:15;;;;;;;27.40;20.50;;;;;;;-128.00;-1.00;-1.00;102663;1262;1005108;-81
2023/06/10 05:17:41;;;;;;;24.40;19.20;;;;;;;-128.00;-1.00;-1.00;102625;1260;1005126;-80
2023/06/10 05:20:08;;;;;;;29.90;21.90;;;;;;;-128.00;-1.00;-1.00;102633;1260;1004325;-79
2023/06/10 05:22:35;;;;;;;34.10;25.30;;;;;;;-128.00;-1.00;-1.00;102620;1260;1005144;-81
2023/06/10 05:25:01;;;;;;;33.10;24.90;;;;;;;-128.00;-1.00;-1.00;102468;1260;1004762;-79
2023/06/10 05:27:28;;;;;;;31.20;24.40;;;;;;;-128.00;-1.00;-1.00;102481;1260;1004844;-80
2023/06/10 05:29:54;;;;;;;33.10;23.80;;;;;;;-128.00;-1.00;-1.00;102532;1260;1004684;-79
2023/06/10 05:32:21;;;;;;;29.10;23.60;;;;;;;-128.00;-1.00;-1.00;102533;1264;1004488;-79
2023/06/10 05:34:48;;;;;;;30.20;23.20;;;;;;;-128.00;-1.00;-1.00;102488;1263;1004505;-79
2023/06/10 05:37:14;;;;;;;29.70;22.60;;;;;;;-128.00;-1.00;-1.00;102533;1263;1004837;-81
2023/06/10 05:39:41;;;;;;;30.70;22.90;;;;;;;-128.00;-1.00;-1.00;102508;1263;1004882;-79
2023/06/10 05:42:07;;;;;;;29.30;22.60;;;;;;;-128.00;-1.00;-1.00;102420;1263;1004371;-79
2023/06/10 05:44:34;;;;;;;30.90;23.00;;;;;;;-128.00;-1.00;-1.00;102473;1259;1004413;-79
2023/06/10 05:47:01;;;;;;;33.40;23.10;;;;;;;-128.00;-1.00;-1.00;102488;1260;1003571;-79
2023/06/10 05:49:27;;;;;;;29.80;23.20;;;;;;;-128.00;-1.00;-1.00;102504;1263;1003830;-81
2023/06/10 05:51:53;;;;;;;31.90;22.70;;;;;;;-128.00;-1.00;-1.00;102540;1259;1004321;-81
2023/06/10 05:54:20;;;;;;;31.60;21.90;;;;;;;-128.00;-1.00;-1.00;102497;1264;1004474;-81
2023/06/10 05:56:46;;;;;;;27.10;20.30;;;;;;;-128.00;-1.00;-1.00;102061;1259;1005848;-80
2023/06/10 05:59:13;;;;;;;28.00;20.50;;;;;;;-128.00;-1.00;-1.00;102557;1259;1004312;-79
2023/06/10 06:01:39;;;;;;;32.10;22.70;;;;;;;-128.00;-1.00;-1.00;102523;1264;1004681;-81
2023/06/10 06:04:06;;;;;;;30.80;22.10;;;;;;;-128.00;-1.00;-1.00;102455;1260;1060206;-81
2023/06/10 06:06:32;;;;;;;30.20;21.50;;;;;;;-128.00;-1.00;-1.00;102411;1261;1004700;-79
2023/06/10 06:08:58;;;;;;;28.20;22.00;;;;;;;-128.00;-1.00;-1.00;102536;1263;1004193;-80
2023/06/10 06:11:26;;;;;;;27.30;20.10;;;;;;;-128.00;-1.00;-1.00;102484;1264;1004262;-79
2023/06/10 06:13:53;;;;;;;31.30;22.50;;;;;;;-128.00;-1.00;-1.00;102501;1260;1005154;-79
2023/06/10 06:16:19;;;;;;;37.40;25.10;;;;;;;-128.00;-1.00;-1.00;102601;1264;1005299;-81
2023/06/10 06:18:46;;;;;;;31.90;22.80;;;;;;;-128.00;-1.00;-1.00;102528;1259;1004804;-80
2023/06/10 06:21:12;;;;;;;40.20;24.40;;;;;;;-128.00;-1.00;-1.00;102350;1260;1004474;-82
2023/06/10 06:23:39;;;;;;;39.00;28.70;;;;;;;-128.00;-1.00;-1.00;102431;1260;1004225;-82
2023/06/10 06:26:05;;;;;;;42.20;27.80;;;;;;;-128.00;-1.00;-1.00;102508;1259;1004171;-79
2023/06/10 06:28:32;;;;;;;41.20;26.30;;;;;;;-128.00;-1.00;-1.00;102392;1260;1005084;-79
2023/06/10 06:30:58;;;;;;;36.30;24.70;;;;;;;-128.00;-1.00;-1.00;102471;1260;1004532;-81
2023/06/10 06:33:26;;;;;;;36.10;24.80;;;;;;;-128.00;-1.00;-1.00;102085;1261;1003682;-79
2023/06/10 06:35:52;;;;;;;43.20;27.40;;;;;;;-128.00;-1.00;-1.00;102614;1261;1004877;-79
2023/06/10 06:38:18;;;;;;;37.10;25.50;;;;;;;-128.00;-1.00;-1.00;102449;1260;1004881;-80
2023/06/10 06:40:45;;;;;;;43.50;27.40;;;;;;;-128.00;-1.00;-1.00;102445;1263;1004355;-81
2023/06/10 06:43:11;;;;;;;45.50;28.30;;;;;;;-128.00;-1.00;-1.00;102485;1263;1005130;-82
2023/06/10 06:45:38;;;;;;;43.60;28.80;;;;;;;-128.00;-1.00;-1.00;102441;1263;1007051;-81
2023/06/10 06:48:05;;;;;;;41.60;28.40;;;;;;;-128.00;-1.00;-1.00;102495;1263;1004023;-79
2023/06/10 06:50:31;;;;;;;35.30;25.00;;;;;;;-128.00;-1.00;-1.00;102427;1260;1004338;-79
2023/06/10 06:52:57;;;;;;;37.40;24.80;;;;;;;-128.00;-1.00;-1.00;102396;1265;1004190;-81
2023/06/10 06:55:24;;;;;;;33.10;23.80;;;;;;;-128.00;-1.00;-1.00;102392;1261;1004560;-81
2023/06/10 06:57:50;;;;;;;33.10;23.90;;;;;;;-128.00;-1.00;-1.00;102448;1265;1005407;-79
2023/06/10 07:00:17;;;;;;;33.40;24.60;;;;;;;-128.00;-1.00;-1.00;102430;1261;1003410;-81
2023/06/10 07:02:44;;;;;;;31.70;22.40;;;;;;;-128.00;-1.00;-1.00;102391;1265;1004193;-79
2023/06/10 07:05:11;;;;;;;31.80;21.90;;;;;;;-128.00;-1.00;-1.00;102628;1260;1004192;-79
2023/06/10 07:07:37;;;;;;;33.30;21.80;;;;;;;-128.00;-1.00;-1.00;102534;1261;1003603;-79
2023/06/10 07:10:04;;;;;;;23.50;18.70;;;;;;;-128.00;-1.00;-1.00;102534;1259;1004281;-79
2023/06/10 07:12:30;;;;;;;27.10;18.80;;;;;;;-128.00;-1.00;-1.00;102535;1263;1004718;-81
2023/06/10 07:14:58;;;;;;;22.90;18.00;;;;;;;-128.00;-1.00;-1.00;102498;1261;1006391;-81
2023/06/10 07:17:25;;;;;;;23.10;18.40;;;;;;;-128.00;-1.00;-1.00;102543;1260;1006044;-81
2023/06/10 07:19:51;;;;;;;25.90;18.50;;;;;;;-128.00;-1.00;-1.00;102604;1259;1004455;-79
2023/06/10 07:22:17;;;;;;;21.10;17.60;;;;;;;-128.00;-1.00;-1.00;102515;1260;1005069;-81
2023/06/10 07:24:44;;;;;;;24.90;18.00;;;;;;;-128.00;-1.00;-1.00;102527;1263;1004254;-79
2023/06/10 07:27:10;;;;;;;24.30;19.50;;;;;;;-128.00;-1.00;-1.00;102480;1260;1004499;-81
2023/06/10 07:29:37;;;;;;;25.50;19.70;;;;;;;-128.00;-1.00;-1.00;102563;1271;1004371;-80
2023/06/10 07:32:04;;;;;;;25.70;20.40;;;;;;;-128.00;-1.00;-1.00;102593;1263;1004790;-79
2023/06/10 07:34:30;;;;;;;24.10;19.40;;;;;;;-128.00;-1.00;-1.00;102435;1261;1004308;-79
2023/06/10 07:36:56;;;;;;;26.50;20.60;;;;;;;-128.00;-1.00;-1.00;102495;1260;1005841;-79
2023/06/10 07:39:23;;;;;;;23.80;18.80;;;;;;;-128.00;-1.00;-1.00;102372;1266;1004304;-81
2023/06/10 07:41:49;;;;;;;31.20;19.10;;;;;;;-128.00;-1.00;-1.00;102480;1260;1003598;-80
2023/06/10 07:44:16;;;;;;;33.00;19.30;;;;;;;-128.00;-1.00;-1.00;102521;1262;1005015;-79
2023/06/10 07:46:42;;;;;;;27.30;20.30;;;;;;;-128.00;-1.00;-1.00;102526;1263;1005410;-81
2023/06/10 07:49:08;;;;;;;26.70;20.30;;;;;;;-128.00;-1.00;-1.00;102537;1265;1004519;-81
2023/06/10 07:51:36;;;;;;;23.60;17.50;;;;;;;-128.00;-1.00;-1.00;102575;1263;1004884;-81
2023/06/10 07:54:03;;;;;;;24.90;18.80;;;;;;;-128.00;-1.00;-1.00;102571;1260;1046753;-80
2023/06/10 07:56:29;;;;;;;37.00;27.50;;;;;;;-128.00;-1.00;-1.00;102082;1260;1004393;-81
2023/06/10 07:58:56;;;;;;;19.40;15.40;;;;;;;-128.00;-1.00;-1.00;102117;1263;1003592;-80
2023/06/10 08:01:23;;;;;;;38.80;27.40;;;;;;;-128.00;-1.00;-1.00;102095;1264;1003983;-80
2023/06/10 08:03:49;;;;;;;50.80;36.70;;;;;;;-128.00;-1.00;-1.00;102366;1260;1004858;-78
2023/06/10 08:06:17;;;;;;;19.10;15.30;;;;;;;-128.00;-1.00;-1.00;102436;1260;1003615;-80
2023/06/10 08:08:44;;;;;;;14.80;12.10;;;;;;;-128.00;-1.00;-1.00;102557;1264;1005349;-79
2023/06/10 08:11:13;;;;;;;15.60;12.30;;;;;;;-128.00;-1.00;-1.00;102365;1266;1005174;-79
2023/06/10 08:13:40;;;;;;;12.90;11.50;;;;;;;-128.00;-1.00;-1.00;102440;1264;1057880;-79
2023/06/10 08:16:07;;;;;;;16.90;11.90;;;;;;;-128.00;-1.00;-1.00;102488;1264;1004045;-81
2023/06/10 08:18:33;;;;;;;17.10;15.10;;;;;;;-128.00;-1.00;-1.00;102543;1263;1004423;-81
2023/06/10 08:21:00;;;;;;;16.40;13.70;;;;;;;-128.00;-1.00;-1.00;102534;1263;1004995;-79
2023/06/10 08:23:26;;;;;;;19.30;17.40;;;;;;;-128.00;-1.00;-1.00;102620;1260;1004194;-79
2023/06/10 08:25:53;;;;;;;15.90;12.30;;;;;;;-128.00;-1.00;-1.00;102513;1259;1004467;-81
2023/06/10 08:28:19;;;;;;;40.50;29.90;;;;;;;-128.00;-1.00;-1.00;102548;1260;1005046;-79
2023/06/10 08:30:45;;;;;;;26.60;20.20;;;;;;;-128.00;-1.00;-1.00;102462;1261;1004626;-81
2023/06/10 08:33:12;;;;;;;20.30;17.10;;;;;;;-128.00;-1.00;-1.00;102629;1262;1005470;-81
2023/06/10 08:35:38;;;;;;;14.00;11.90;;;;;;;-128.00;-1.00;-1.00;102561;1263;1005166;-79
2023/06/10 08:38:05;;;;;;;14.00;9.80;;;;;;;-128.00;-1.00;-1.00;102431;1259;1005865;-82
2023/06/10 08:40:33;;;;;;;15.80;10.20;;;;;;;-128.00;-1.00;-1.00;102695;1261;1004216;-79
2023/06/10 08:43:15;;;;;;;11.50;10.00;;;;;;;-128.00;-1.00;-1.00;102820;1259;1004617;-80
2023/06/10 08:45:42;;;;;;;11.70;10.50;;;;;;;-128.00;-1.00;-1.00;102552;1260;1046909;-81
2023/06/10 08:48:09;;;;;;;12.70;10.00;;;;;;;-128.00;-1.00;-1.00;102423;1264;1005069;-81
2023/06/10 08:50:36;;;;;;;13.30;11.30;;;;;;;-128.00;-1.00;-1.00;102437;1260;1004437;-82
2023/06/10 08:53:06;;;;;;;14.70;11.50;;;;;;;-128.00;-1.00;-1.00;102562;1261;1005915;-79
2023/06/10 08:55:37;;;;;;;15.80;13.20;;;;;;;-128.00;-1.00;-1.00;102695;1263;1046475;-82
2023/06/10 08:58:04;;;;;;;13.70;11.20;;;;;;;-128.00;-1.00;-1.00;102552;1260;1049083;-81
2023/06/10 09:00:31;;;;;;;14.20;10.80;;;;;;;-128.00;-1.00;-1.00;102663;1260;1003597;-79
2023/06/10 09:02:57;;;;;;;19.10;10.80;;;;;;;-128.00;-1.00;-1.00;102696;1262;1006441;-81
2023/06/10 09:05:24;;;;;;;12.10;10.40;;;;;;;-128.00;-1.00;-1.00;102521;1259;1004213;-79
2023/06/10 09:07:51;;;;;;;15.60;12.70;;;;;;;-128.00;-1.00;-1.00;102510;1264;1004515;-79
2023/06/10 09:10:18;;;;;;;18.30;11.70;;;;;;;-128.00;-1.00;-1.00;102646;1264;1003929;-80
2023/06/10 09:12:44;;;;;;;22.00;12.30;;;;;;;-128.00;-1.00;-1.00;102665;1260;1005001;-81
2023/06/10 09:15:12;;;;;;;13.10;11.00;;;;;;;-128.00;-1.00;-1.00;102479;1261;1007265;-79
2023/06/10 09:17:40;;;;;;;17.60;11.90;;;;;;;-128.00;-1.00;-1.00;102678;1260;1004290;-81
2023/06/10 09:20:08;;;;;;;16.30;11.70;;;;;;;-128.00;-1.00;-1.00;102469;1260;1004288;-79
2023/06/10 09:22:34;;;;;;;16.40;11.90;;;;;;;-128.00;-1.00;-1.00;102547;1259;1005097;-82
2023/06/10 09:25:05;;;;;;;13.10;11.10;;;;;;;-128.00;-1.00;-1.00;102393;1260;1004428;-80
2023/06/10 09:27:32;;;;;;;14.90;11.10;;;;;;;-128.00;-1.00;-1.00;102560;1260;1059198;-82
2023/06/10 09:29:59;;;;;;;13.20;11.40;;;;;;;-128.00;-1.00;-1.00;102524;1261;1004219;-79
2023/06/10 09:32:25;;;;;;;13.50;11.30;;;;;;;-128.00;-1.00;-1.00;102690;1260;1005161;-82
2023/06/10 09:34:52;;;;;;;16.40;11.50;;;;;;;-128.00;-1.00;-1.00;102683;1261;1004598;-80
2023/06/10 09:37:25;;;;;;;13.50;11.00;;;;;;;-128.00;-1.00;-1.00;102654;1261;1005069;-79
2023/06/10 09:40:05;;;;;;;12.60;10.50;;;;;;;-128.00;-1.00;-1.00;102609;1259;1060592;-79
2023/06/10 09:42:33;;;;;;;15.60;11.00;;;;;;;-128.00;-1.00;-1.00;102641;1262;1061768;-80
2023/06/10 09:45:01;;;;;;;14.90;10.70;;;;;;;-128.00;-1.00;-1.00;102646;1260;1004989;-82
2023/06/10 09:47:27;;;;;;;11.80;10.60;;;;;;;-128.00;-1.00;-1.00;102520;1264;1004498;-81
2023/06/10 09:49:54;;;;;;;15.10;11.10;;;;;;;-128.00;-1.00;-1.00;102666;1261;1004588;-81
2023/06/10 09:52:24;;;;;;;12.60;10.60;;;;;;;-128.00;-1.00;-1.00;102493;1261;1003846;-81
2023/06/10 09:54:52;;;;;;;14.40;11.00;;;;;;;-128.00;-1.00;-1.00;102536;1257;1060666;-81
2023/06/10 09:57:19;;;;;;;18.80;11.20;;;;;;;-128.00;-1.00;-1.00;102570;1260;1005052;-81
2023/06/10 09:59:46;;;;;;;17.80;11.80;;;;;;;-128.00;-1.00;-1.00;102540;1260;1005981;-81
2023/06/10 10:02:15;;;;;;;15.70;11.30;;;;;;;-128.00;-1.00;-1.00;102477;1264;1003955;-80
2023/06/10 10:04:43;;;;;;;15.40;11.20;;;;;;;-128.00;-1.00;-1.00;102598;1261;1060130;-80
2023/06/10 10:07:10;;;;;;;13.00;10.80;;;;;;;-128.00;-1.00;-1.00;102469;1261;1004374;-82
2023/06/10 10:09:37;;;;;;;13.10;11.20;;;;;;;-128.00;-1.00;-1.00;102603;1259;1004638;-80
2023/06/10 10:12:15;;;;;;;19.10;10.80;;;;;;;-128.00;-1.00;-1.00;102943;1260;1003881;-80
2023/06/10 10:14:47;;;;;;;13.80;11.40;;;;;;;-128.00;-1.00;-1.00;102641;1261;1064344;-80
2023/06/10 10:17:15;;;;;;;13.20;10.30;;;;;;;-128.00;-1.00;-1.00;102595;1260;1060754;-81
2023/06/10 10:19:53;;;;;;;11.50;10.00;;;;;;;-128.00;-1.00;-1.00;102614;1264;1004342;-82
2023/06/10 10:22:26;;;;;;;;;;;;;;;-128.00;-1.00;-1.00;102581;1260;1045917;-81
2023/06/10 10:24:55;;;;;;;11.60;10.00;;;;;;;-128.00;-1.00;-1.00;102565;1260;1047504;-80
2023/06/10 10:27:30;;;;;;;13.80;11.10;;;;;;;-128.00;-1.00;-1.00;102656;1260;1064275;-81
2023/06/10 10:29:58;;;;;;;13.70;11.50;;;;;;;-128.00;-1.00;-1.00;102531;1260;1058798;-82
2023/06/10 10:32:37;;;;;;;12.90;11.10;;;;;;;-128.00;-1.00;-1.00;102838;1261;1005155;-81
2023/06/10 10:35:17;;;;;;;17.20;10.20;;;;;;;-128.00;-1.00;-1.00;102704;1260;1045910;-80
2023/06/10 10:37:44;;;;;;;13.30;10.50;;;;;;;-128.00;-1.00;-1.00;102875;1260;1046958;-80
2023/06/10 10:40:10;;;;;;;16.50;10.00;;;;;;;-128.00;-1.00;-1.00;102699;1260;1003927;-80
2023/06/10 10:42:37;;;;;;;16.20;10.40;;;;;;;-128.00;-1.00;-1.00;102569;1265;1004468;-81
2023/06/10 10:45:04;;;;;;;10.30;8.80;;;;;;;-128.00;-1.00;-1.00;102450;1260;1003816;-80
2023/06/10 10:47:31;;;;;;;13.60;9.90;;;;;;;-128.00;-1.00;-1.00;102657;1263;1005722;-82
2023/06/10 10:49:59;;;;;;;10.70;9.30;;;;;;;-128.00;-1.00;-1.00;102545;1260;1004391;-82
2023/06/10 10:52:27;;;;;;;17.80;11.50;;;;;;;-128.00;-1.00;-1.00;103084;1259;1004505;-83
2023/06/10 10:54:54;;;;;;;;;;;;;;;-128.00;-1.00;-1.00;102728;1259;1057605;-83
2023/06/10 10:57:23;;;;;;;17.70;9.50;;;;;;;-128.00;-1.00;-1.00;102594;1258;1004496;-82
2023/06/10 10:59:51;;;;;;;17.80;9.20;;;;;;;-128.00;-1.00;-1.00;102612;1260;1004595;-82
2023/06/10 11:02:40;;;;;;;8.30;7.40;;;;;;;-128.00;-1.00;-1.00;102571;1260;1005020;-82